sensor_id;sensor_type;location;lat;lon;timestamp;P1;durP1;ratioP1;P2;durP2;ratioP2
33830;SDS011;20137;48.834;8.732;2023-07-31T00:02:24;6.70;;;2.10;;
33830;SDS011;20137;48.834;8.732;2023-07-31T00:07:44;4.32;;;1.70;;
33830;SDS011;20137;48.834;8.732;2023-07-31T00:10:22;6.68;;;1.83;;
33830;SDS011;20137;48.834;8.732;2023-07-31T00:12:59;3.90;;;1.88;;
33830;SDS011;20137;48.834;8.732;2023-07-31T00:15:37;4.32;;;1.65;;
33830;SDS011;20137;48.834;8.732;2023-07-31T00:18:15;10.07;;;1.77;;
33830;SDS011;20137;48.834;8.732;2023-07-31T00:21:01;5.35;;;2.22;;
33830;SDS011;20137;48.834;8.732;2023-07-31T00:23:26;4.90;;;2.08;;
33830;SDS011;20137;48.834;8.732;2023-07-31T00:26:00;6.68;;;2.00;;
33830;SDS011;20137;48.834;8.732;2023-07-31T00:28:33;5.25;;;1.58;;
33830;SDS011;20137;48.834;8.732;2023-07-31T00:31:07;5.85;;;2.22;;
33830;SDS011;20137;48.834;8.732;2023-07-31T00:33:38;7.93;;;2.00;;
33830;SDS011;20137;48.834;8.732;2023-07-31T00:36:41;7.20;;;1.80;;
33830;SDS011;20137;48.834;8.732;2023-07-31T00:39:08;7.15;;;1.90;;
33830;SDS011;20137;48.834;8.732;2023-07-31T00:41:58;3.88;;;1.80;;
33830;SDS011;20137;48.834;8.732;2023-07-31T00:44:23;6.55;;;1.70;;
33830;SDS011;20137;48.834;8.732;2023-07-31T00:47:08;6.65;;;1.95;;
33830;SDS011;20137;48.834;8.732;2023-07-31T00:49:36;4.85;;;2.00;;
33830;SDS011;20137;48.834;8.732;2023-07-31T00:55:05;4.20;;;1.92;;
33830;SDS011;20137;48.834;8.732;2023-07-31T00:58:19;7.28;;;2.15;;
33830;SDS011;20137;48.834;8.732;2023-07-31T01:03:44;5.28;;;1.92;;
33830;SDS011;20137;48.834;8.732;2023-07-31T01:12:24;4.20;;;1.92;;
33830;SDS011;20137;48.834;8.732;2023-07-31T01:15:06;3.40;;;2.00;;
33830;SDS011;20137;48.834;8.732;2023-07-31T01:17:55;5.32;;;1.90;;
33830;SDS011;20137;48.834;8.732;2023-07-31T01:20:32;4.80;;;1.80;;
33830;SDS011;20137;48.834;8.732;2023-07-31T01:26:23;9.07;;;2.58;;
33830;SDS011;20137;48.834;8.732;2023-07-31T01:29:08;4.65;;;1.73;;
33830;SDS011;20137;48.834;8.732;2023-07-31T01:31:39;6.65;;;2.10;;
33830;SDS011;20137;48.834;8.732;2023-07-31T01:34:13;5.22;;;1.92;;
33830;SDS011;20137;48.834;8.732;2023-07-31T01:37:10;3.30;;;1.52;;
33830;SDS011;20137;48.834;8.732;2023-07-31T01:39:51;3.38;;;1.67;;
33830;SDS011;20137;48.834;8.732;2023-07-31T01:42:19;5.50;;;2.00;;
33830;SDS011;20137;48.834;8.732;2023-07-31T01:44:45;7.07;;;1.77;;
33830;SDS011;20137;48.834;8.732;2023-07-31T01:47:13;5.78;;;1.80;;
33830;SDS011;20137;48.834;8.732;2023-07-31T01:49:48;7.50;;;2.42;;
33830;SDS011;20137;48.834;8.732;2023-07-31T01:52:30;3.38;;;1.80;;
33830;SDS011;20137;48.834;8.732;2023-07-31T01:55:01;9.93;;;2.22;;
33830;SDS011;20137;48.834;8.732;2023-07-31T01:57:29;4.80;;;1.98;;
33830;SDS011;20137;48.834;8.732;2023-07-31T02:00:04;5.10;;;2.08;;
33830;SDS011;20137;48.834;8.732;2023-07-31T02:02:39;5.75;;;2.08;;
33830;SDS011;20137;48.834;8.732;2023-07-31T02:05:54;3.97;;;1.98;;
33830;SDS011;20137;48.834;8.732;2023-07-31T02:08:32;7.90;;;2.20;;
33830;SDS011;20137;48.834;8.732;2023-07-31T02:11:06;6.57;;;2.15;;
33830;SDS011;20137;48.834;8.732;2023-07-31T02:13:58;5.60;;;2.08;;
33830;SDS011;20137;48.834;8.732;2023-07-31T02:16:26;6.78;;;2.03;;
33830;SDS011;20137;48.834;8.732;2023-07-31T02:18:57;6.85;;;2.00;;
33830;SDS011;20137;48.834;8.732;2023-07-31T02:21:39;7.32;;;2.45;;
33830;SDS011;20137;48.834;8.732;2023-07-31T02:24:37;7.20;;;2.30;;
33830;SDS011;20137;48.834;8.732;2023-07-31T02:27:43;8.85;;;2.08;;
33830;SDS011;20137;48.834;8.732;2023-07-31T02:30:14;7.68;;;2.40;;
33830;SDS011;20137;48.834;8.732;2023-07-31T02:32:48;5.63;;;2.15;;
33830;SDS011;20137;48.834;8.732;2023-07-31T02:35:22;6.07;;;2.38;;
33830;SDS011;20137;48.834;8.732;2023-07-31T02:37:48;5.57;;;1.92;;
33830;SDS011;20137;48.834;8.732;2023-07-31T02:40:19;6.03;;;2.38;;
33830;SDS011;20137;48.834;8.732;2023-07-31T02:42:55;5.68;;;2.35;;
33830;SDS011;20137;48.834;8.732;2023-07-31T02:45:43;3.88;;;2.28;;
33830;SDS011;20137;48.834;8.732;2023-07-31T02:48:31;5.20;;;1.92;;
33830;SDS011;20137;48.834;8.732;2023-07-31T02:51:23;5.88;;;2.05;;
33830;SDS011;20137;48.834;8.732;2023-07-31T02:53:51;7.65;;;2.40;;
33830;SDS011;20137;48.834;8.732;2023-07-31T02:56:40;6.53;;;2.13;;
33830;SDS011;20137;48.834;8.732;2023-07-31T02:59:29;7.32;;;2.17;;
33830;SDS011;20137;48.834;8.732;2023-07-31T03:01:59;4.85;;;2.20;;
33830;SDS011;20137;48.834;8.732;2023-07-31T03:07:24;6.05;;;2.08;;
33830;SDS011;20137;48.834;8.732;2023-07-31T03:09:50;6.07;;;2.15;;
33830;SDS011;20137;48.834;8.732;2023-07-31T03:12:36;10.60;;;2.10;;
33830;SDS011;20137;48.834;8.732;2023-07-31T03:15:10;9.80;;;2.85;;
33830;SDS011;20137;48.834;8.732;2023-07-31T03:17:56;5.15;;;2.30;;
33830;SDS011;20137;48.834;8.732;2023-07-31T03:20:39;5.85;;;2.30;;
33830;SDS011;20137;48.834;8.732;2023-07-31T03:23:15;3.92;;;1.98;;
33830;SDS011;20137;48.834;8.732;2023-07-31T03:25:57;7.63;;;2.45;;
33830;SDS011;20137;48.834;8.732;2023-07-31T03:28:56;7.80;;;2.28;;
33830;SDS011;20137;48.834;8.732;2023-07-31T03:31:25;6.38;;;2.35;;
33830;SDS011;20137;48.834;8.732;2023-07-31T03:34:24;9.70;;;2.78;;
33830;SDS011;20137;48.834;8.732;2023-07-31T03:37:21;9.02;;;2.47;;
33830;SDS011;20137;48.834;8.732;2023-07-31T03:40:14;6.88;;;2.60;;
33830;SDS011;20137;48.834;8.732;2023-07-31T03:46:04;7.65;;;2.80;;
33830;SDS011;20137;48.834;8.732;2023-07-31T03:54:12;5.40;;;2.67;;
33830;SDS011;20137;48.834;8.732;2023-07-31T03:56:53;6.85;;;2.25;;
33830;SDS011;20137;48.834;8.732;2023-07-31T03:59:21;8.88;;;2.38;;
33830;SDS011;20137;48.834;8.732;2023-07-31T04:02:11;5.03;;;2.22;;
33830;SDS011;20137;48.834;8.732;2023-07-31T04:04:46;8.93;;;2.38;;
33830;SDS011;20137;48.834;8.732;2023-07-31T04:07:18;6.57;;;2.55;;
33830;SDS011;20137;48.834;8.732;2023-07-31T04:10:04;6.03;;;2.15;;
33830;SDS011;20137;48.834;8.732;2023-07-31T04:13:03;6.93;;;2.17;;
33830;SDS011;20137;48.834;8.732;2023-07-31T04:15:40;6.22;;;2.10;;
33830;SDS011;20137;48.834;8.732;2023-07-31T04:18:19;5.80;;;2.28;;
33830;SDS011;20137;48.834;8.732;2023-07-31T04:20:47;5.78;;;2.10;;
33830;SDS011;20137;48.834;8.732;2023-07-31T04:23:34;5.75;;;2.60;;
33830;SDS011;20137;48.834;8.732;2023-07-31T04:28:43;6.38;;;2.65;;
33830;SDS011;20137;48.834;8.732;2023-07-31T04:31:20;4.18;;;2.20;;
33830;SDS011;20137;48.834;8.732;2023-07-31T04:34:06;5.95;;;2.35;;
33830;SDS011;20137;48.834;8.732;2023-07-31T04:36:37;5.85;;;1.98;;
33830;SDS011;20137;48.834;8.732;2023-07-31T04:42:19;7.63;;;2.30;;
33830;SDS011;20137;48.834;8.732;2023-07-31T04:44:59;6.93;;;2.60;;
33830;SDS011;20137;48.834;8.732;2023-07-31T04:47:27;5.10;;;2.05;;
33830;SDS011;20137;48.834;8.732;2023-07-31T04:50:19;5.85;;;2.83;;
33830;SDS011;20137;48.834;8.732;2023-07-31T04:55:46;5.45;;;2.33;;
33830;SDS011;20137;48.834;8.732;2023-07-31T04:58:17;6.95;;;2.30;;
33830;SDS011;20137;48.834;8.732;2023-07-31T05:00:45;5.45;;;2.63;;
33830;SDS011;20137;48.834;8.732;2023-07-31T05:03:34;7.70;;;2.55;;
33830;SDS011;20137;48.834;8.732;2023-07-31T05:06:27;7.47;;;2.00;;
33830;SDS011;20137;48.834;8.732;2023-07-31T05:08:52;8.35;;;2.65;;
33830;SDS011;20137;48.834;8.732;2023-07-31T05:11:26;5.95;;;2.10;;
33830;SDS011;20137;48.834;8.732;2023-07-31T05:13:52;5.65;;;2.30;;
33830;SDS011;20137;48.834;8.732;2023-07-31T05:16:26;6.40;;;2.45;;
33830;SDS011;20137;48.834;8.732;2023-07-31T05:19:03;5.90;;;2.50;;
33830;SDS011;20137;48.834;8.732;2023-07-31T05:21:31;6.00;;;2.30;;
33830;SDS011;20137;48.834;8.732;2023-07-31T05:24:14;7.53;;;2.38;;
33830;SDS011;20137;48.834;8.732;2023-07-31T05:26:49;7.03;;;2.30;;
33830;SDS011;20137;48.834;8.732;2023-07-31T05:29:14;7.47;;;2.55;;
33830;SDS011;20137;48.834;8.732;2023-07-31T05:31:47;9.35;;;2.53;;
33830;SDS011;20137;48.834;8.732;2023-07-31T05:34:33;4.45;;;2.08;;
33830;SDS011;20137;48.834;8.732;2023-07-31T05:37:09;4.13;;;2.00;;
33830;SDS011;20137;48.834;8.732;2023-07-31T05:39:40;7.68;;;2.40;;
33830;SDS011;20137;48.834;8.732;2023-07-31T05:42:08;8.90;;;2.90;;
33830;SDS011;20137;48.834;8.732;2023-07-31T05:44:34;4.68;;;1.98;;
33830;SDS011;20137;48.834;8.732;2023-07-31T05:47:00;5.75;;;2.40;;
33830;SDS011;20137;48.834;8.732;2023-07-31T05:49:25;4.88;;;2.17;;
33830;SDS011;20137;48.834;8.732;2023-07-31T05:51:51;6.00;;;2.13;;
33830;SDS011;20137;48.834;8.732;2023-07-31T05:54:17;4.85;;;2.00;;
33830;SDS011;20137;48.834;8.732;2023-07-31T05:56:42;6.38;;;2.33;;
33830;SDS011;20137;48.834;8.732;2023-07-31T05:59:08;8.05;;;2.40;;
33830;SDS011;20137;48.834;8.732;2023-07-31T06:01:39;4.32;;;2.35;;
33830;SDS011;20137;48.834;8.732;2023-07-31T06:04:38;7.82;;;2.03;;
33830;SDS011;20137;48.834;8.732;2023-07-31T06:07:21;6.65;;;2.40;;
33830;SDS011;20137;48.834;8.732;2023-07-31T06:09:53;5.25;;;2.40;;
33830;SDS011;20137;48.834;8.732;2023-07-31T06:12:20;4.78;;;1.80;;
33830;SDS011;20137;48.834;8.732;2023-07-31T06:14:45;7.70;;;2.42;;
33830;SDS011;20137;48.834;8.732;2023-07-31T06:17:11;5.80;;;2.50;;
33830;SDS011;20137;48.834;8.732;2023-07-31T06:19:37;7.30;;;2.65;;
33830;SDS011;20137;48.834;8.732;2023-07-31T06:22:02;8.00;;;2.10;;
33830;SDS011;20137;48.834;8.732;2023-07-31T06:24:28;8.02;;;2.70;;
33830;SDS011;20137;48.834;8.732;2023-07-31T06:26:54;4.47;;;2.10;;
33830;SDS011;20137;48.834;8.732;2023-07-31T06:29:20;3.97;;;1.83;;
33830;SDS011;20137;48.834;8.732;2023-07-31T06:31:46;9.18;;;2.38;;
33830;SDS011;20137;48.834;8.732;2023-07-31T06:34:11;6.15;;;2.05;;
33830;SDS011;20137;48.834;8.732;2023-07-31T06:36:37;7.38;;;2.25;;
33830;SDS011;20137;48.834;8.732;2023-07-31T06:39:02;5.03;;;2.42;;
33830;SDS011;20137;48.834;8.732;2023-07-31T06:41:28;5.53;;;2.00;;
33830;SDS011;20137;48.834;8.732;2023-07-31T06:43:54;7.20;;;2.35;;
33830;SDS011;20137;48.834;8.732;2023-07-31T06:46:20;4.43;;;2.38;;
33830;SDS011;20137;48.834;8.732;2023-07-31T06:48:45;7.15;;;2.35;;
33830;SDS011;20137;48.834;8.732;2023-07-31T06:51:11;5.38;;;1.88;;
33830;SDS011;20137;48.834;8.732;2023-07-31T06:53:37;7.80;;;2.22;;
33830;SDS011;20137;48.834;8.732;2023-07-31T06:56:02;4.50;;;1.85;;
33830;SDS011;20137;48.834;8.732;2023-07-31T06:58:29;7.25;;;2.40;;
33830;SDS011;20137;48.834;8.732;2023-07-31T07:00:54;6.03;;;2.35;;
33830;SDS011;20137;48.834;8.732;2023-07-31T07:03:20;5.57;;;2.22;;
33830;SDS011;20137;48.834;8.732;2023-07-31T07:05:46;7.03;;;2.55;;
33830;SDS011;20137;48.834;8.732;2023-07-31T07:08:12;7.03;;;2.40;;
33830;SDS011;20137;48.834;8.732;2023-07-31T07:10:37;6.70;;;2.10;;
33830;SDS011;20137;48.834;8.732;2023-07-31T07:13:03;5.97;;;2.40;;
33830;SDS011;20137;48.834;8.732;2023-07-31T07:15:29;6.90;;;2.15;;
33830;SDS011;20137;48.834;8.732;2023-07-31T07:17:55;5.90;;;2.28;;
33830;SDS011;20137;48.834;8.732;2023-07-31T07:20:21;7.85;;;2.20;;
33830;SDS011;20137;48.834;8.732;2023-07-31T07:22:46;5.13;;;2.35;;
33830;SDS011;20137;48.834;8.732;2023-07-31T07:25:12;4.10;;;2.08;;
33830;SDS011;20137;48.834;8.732;2023-07-31T07:27:38;7.72;;;2.33;;
33830;SDS011;20137;48.834;8.732;2023-07-31T07:30:04;7.07;;;2.25;;
33830;SDS011;20137;48.834;8.732;2023-07-31T07:32:30;6.95;;;2.40;;
33830;SDS011;20137;48.834;8.732;2023-07-31T07:34:55;5.43;;;2.17;;
33830;SDS011;20137;48.834;8.732;2023-07-31T07:37:21;9.25;;;2.38;;
33830;SDS011;20137;48.834;8.732;2023-07-31T07:39:47;11.82;;;2.78;;
33830;SDS011;20137;48.834;8.732;2023-07-31T07:42:13;4.97;;;2.15;;
33830;SDS011;20137;48.834;8.732;2023-07-31T07:44:38;6.03;;;2.30;;
33830;SDS011;20137;48.834;8.732;2023-07-31T07:47:04;8.23;;;2.50;;
33830;SDS011;20137;48.834;8.732;2023-07-31T07:49:36;8.50;;;2.30;;
33830;SDS011;20137;48.834;8.732;2023-07-31T07:52:02;5.03;;;2.15;;
33830;SDS011;20137;48.834;8.732;2023-07-31T07:54:28;4.07;;;2.13;;
33830;SDS011;20137;48.834;8.732;2023-07-31T07:56:53;4.25;;;1.83;;
33830;SDS011;20137;48.834;8.732;2023-07-31T07:59:19;6.05;;;2.17;;
33830;SDS011;20137;48.834;8.732;2023-07-31T08:01:45;6.90;;;2.45;;
33830;SDS011;20137;48.834;8.732;2023-07-31T08:04:11;9.20;;;2.50;;
33830;SDS011;20137;48.834;8.732;2023-07-31T08:06:36;7.00;;;2.13;;
33830;SDS011;20137;48.834;8.732;2023-07-31T08:09:02;5.00;;;2.30;;
33830;SDS011;20137;48.834;8.732;2023-07-31T08:11:31;9.82;;;2.42;;
33830;SDS011;20137;48.834;8.732;2023-07-31T08:13:57;4.60;;;2.60;;
33830;SDS011;20137;48.834;8.732;2023-07-31T08:16:23;7.38;;;2.40;;
33830;SDS011;20137;48.834;8.732;2023-07-31T08:18:48;6.13;;;2.95;;
33830;SDS011;20137;48.834;8.732;2023-07-31T08:21:14;6.40;;;2.78;;
33830;SDS011;20137;48.834;8.732;2023-07-31T08:23:40;8.98;;;3.03;;
33830;SDS011;20137;48.834;8.732;2023-07-31T08:26:06;6.93;;;2.50;;
33830;SDS011;20137;48.834;8.732;2023-07-31T08:28:32;9.00;;;2.78;;
33830;SDS011;20137;48.834;8.732;2023-07-31T08:30:57;7.05;;;2.67;;
33830;SDS011;20137;48.834;8.732;2023-07-31T08:33:23;6.78;;;2.80;;
33830;SDS011;20137;48.834;8.732;2023-07-31T08:35:49;6.47;;;2.63;;
33830;SDS011;20137;48.834;8.732;2023-07-31T08:38:14;7.10;;;2.65;;
33830;SDS011;20137;48.834;8.732;2023-07-31T08:40:40;9.50;;;2.72;;
33830;SDS011;20137;48.834;8.732;2023-07-31T08:43:07;6.97;;;2.80;;
33830;SDS011;20137;48.834;8.732;2023-07-31T08:45:33;7.82;;;2.80;;
33830;SDS011;20137;48.834;8.732;2023-07-31T08:48:00;8.05;;;2.88;;
33830;SDS011;20137;48.834;8.732;2023-07-31T08:50:25;6.97;;;2.78;;
33830;SDS011;20137;48.834;8.732;2023-07-31T08:52:52;9.27;;;2.72;;
33830;SDS011;20137;48.834;8.732;2023-07-31T08:55:18;7.57;;;2.90;;
33830;SDS011;20137;48.834;8.732;2023-07-31T08:57:48;9.57;;;3.33;;
33830;SDS011;20137;48.834;8.732;2023-07-31T09:00:16;8.95;;;3.15;;
33830;SDS011;20137;48.834;8.732;2023-07-31T09:05:12;8.75;;;3.50;;
33830;SDS011;20137;48.834;8.732;2023-07-31T09:07:37;9.27;;;2.83;;
33830;SDS011;20137;48.834;8.732;2023-07-31T09:10:04;6.95;;;2.83;;
33830;SDS011;20137;48.834;8.732;2023-07-31T09:12:30;7.45;;;3.10;;
33830;SDS011;20137;48.834;8.732;2023-07-31T09:14:57;7.18;;;2.72;;
33830;SDS011;20137;48.834;8.732;2023-07-31T09:17:30;4.45;;;2.40;;
33830;SDS011;20137;48.834;8.732;2023-07-31T09:19:56;7.68;;;2.88;;
33830;SDS011;20137;48.834;8.732;2023-07-31T09:22:32;8.70;;;3.25;;
33830;SDS011;20137;48.834;8.732;2023-07-31T09:30:24;6.85;;;2.90;;
33830;SDS011;20137;48.834;8.732;2023-07-31T09:32:50;10.70;;;3.17;;
33830;SDS011;20137;48.834;8.732;2023-07-31T09:35:27;6.20;;;2.85;;
33830;SDS011;20137;48.834;8.732;2023-07-31T09:37:56;5.13;;;2.60;;
33830;SDS011;20137;48.834;8.732;2023-07-31T09:40:31;9.02;;;3.17;;
33830;SDS011;20137;48.834;8.732;2023-07-31T09:43:07;7.50;;;3.08;;
33830;SDS011;20137;48.834;8.732;2023-07-31T09:45:36;8.52;;;2.83;;
33830;SDS011;20137;48.834;8.732;2023-07-31T09:48:03;7.80;;;3.03;;
33830;SDS011;20137;48.834;8.732;2023-07-31T09:50:31;6.60;;;2.90;;
33830;SDS011;20137;48.834;8.732;2023-07-31T09:52:57;9.52;;;3.00;;
33830;SDS011;20137;48.834;8.732;2023-07-31T09:55:23;8.43;;;3.10;;
33830;SDS011;20137;48.834;8.732;2023-07-31T09:57:49;6.75;;;2.75;;
33830;SDS011;20137;48.834;8.732;2023-07-31T10:00:16;8.63;;;3.00;;
33830;SDS011;20137;48.834;8.732;2023-07-31T10:02:44;7.53;;;3.10;;
33830;SDS011;20137;48.834;8.732;2023-07-31T10:05:12;6.72;;;2.85;;
33830;SDS011;20137;48.834;8.732;2023-07-31T10:07:40;7.22;;;2.78;;
33830;SDS011;20137;48.834;8.732;2023-07-31T10:10:19;10.25;;;2.92;;
33830;SDS011;20137;48.834;8.732;2023-07-31T10:12:46;10.18;;;3.10;;
33830;SDS011;20137;48.834;8.732;2023-07-31T10:15:14;7.45;;;3.13;;
33830;SDS011;20137;48.834;8.732;2023-07-31T10:17:41;11.63;;;3.15;;
33830;SDS011;20137;48.834;8.732;2023-07-31T10:20:07;8.23;;;2.70;;
33830;SDS011;20137;48.834;8.732;2023-07-31T10:22:34;10.02;;;2.67;;
33830;SDS011;20137;48.834;8.732;2023-07-31T10:25:00;8.60;;;3.30;;
33830;SDS011;20137;48.834;8.732;2023-07-31T10:27:26;6.95;;;3.03;;
33830;SDS011;20137;48.834;8.732;2023-07-31T10:29:55;8.65;;;2.88;;
33830;SDS011;20137;48.834;8.732;2023-07-31T10:32:22;9.15;;;3.08;;
33830;SDS011;20137;48.834;8.732;2023-07-31T10:34:50;8.38;;;3.33;;
33830;SDS011;20137;48.834;8.732;2023-07-31T10:37:23;10.32;;;3.10;;
33830;SDS011;20137;48.834;8.732;2023-07-31T10:42:32;8.80;;;3.35;;
33830;SDS011;20137;48.834;8.732;2023-07-31T10:45:10;10.63;;;3.30;;
33830;SDS011;20137;48.834;8.732;2023-07-31T10:47:36;11.45;;;3.40;;
33830;SDS011;20137;48.834;8.732;2023-07-31T10:50:19;6.78;;;3.13;;
33830;SDS011;20137;48.834;8.732;2023-07-31T10:52:47;6.88;;;3.22;;
33830;SDS011;20137;48.834;8.732;2023-07-31T10:58:08;8.77;;;3.33;;
33830;SDS011;20137;48.834;8.732;2023-07-31T11:00:38;8.10;;;3.30;;
33830;SDS011;20137;48.834;8.732;2023-07-31T11:03:05;8.63;;;3.25;;
33830;SDS011;20137;48.834;8.732;2023-07-31T11:08:30;7.80;;;2.83;;
33830;SDS011;20137;48.834;8.732;2023-07-31T11:13:28;6.57;;;2.92;;
33830;SDS011;20137;48.834;8.732;2023-07-31T11:15:54;7.88;;;3.50;;
33830;SDS011;20137;48.834;8.732;2023-07-31T11:18:20;9.50;;;3.53;;
33830;SDS011;20137;48.834;8.732;2023-07-31T11:20:46;8.07;;;3.42;;
33830;SDS011;20137;48.834;8.732;2023-07-31T11:23:12;8.90;;;2.83;;
33830;SDS011;20137;48.834;8.732;2023-07-31T11:25:38;6.15;;;3.30;;
33830;SDS011;20137;48.834;8.732;2023-07-31T11:28:11;7.53;;;3.00;;
33830;SDS011;20137;48.834;8.732;2023-07-31T11:30:39;9.00;;;3.30;;
33830;SDS011;20137;48.834;8.732;2023-07-31T11:33:06;7.65;;;3.05;;
33830;SDS011;20137;48.834;8.732;2023-07-31T11:35:33;7.32;;;3.05;;
33830;SDS011;20137;48.834;8.732;2023-07-31T11:38:00;6.85;;;2.95;;
33830;SDS011;20137;48.834;8.732;2023-07-31T11:40:26;7.47;;;3.42;;
33830;SDS011;20137;48.834;8.732;2023-07-31T11:42:58;9.00;;;3.22;;
33830;SDS011;20137;48.834;8.732;2023-07-31T11:45:29;7.38;;;2.90;;
33830;SDS011;20137;48.834;8.732;2023-07-31T11:47:55;6.18;;;2.67;;
33830;SDS011;20137;48.834;8.732;2023-07-31T11:50:22;8.68;;;3.13;;
33830;SDS011;20137;48.834;8.732;2023-07-31T11:52:51;7.63;;;3.55;;
33830;SDS011;20137;48.834;8.732;2023-07-31T11:55:21;7.10;;;2.97;;
33830;SDS011;20137;48.834;8.732;2023-07-31T11:57:48;7.28;;;3.30;;
33830;SDS011;20137;48.834;8.732;2023-07-31T12:00:15;7.05;;;2.72;;
33830;SDS011;20137;48.834;8.732;2023-07-31T12:02:42;8.77;;;3.20;;
33830;SDS011;20137;48.834;8.732;2023-07-31T12:05:11;9.02;;;2.97;;
33830;SDS011;20137;48.834;8.732;2023-07-31T12:07:44;7.75;;;2.63;;
33830;SDS011;20137;48.834;8.732;2023-07-31T12:10:25;7.70;;;2.90;;
33830;SDS011;20137;48.834;8.732;2023-07-31T12:18:11;7.65;;;2.80;;
33830;SDS011;20137;48.834;8.732;2023-07-31T12:20:42;7.55;;;2.75;;
33830;SDS011;20137;48.834;8.732;2023-07-31T12:23:19;7.22;;;3.08;;
33830;SDS011;20137;48.834;8.732;2023-07-31T12:28:35;6.78;;;2.78;;
33830;SDS011;20137;48.834;8.732;2023-07-31T12:31:05;9.60;;;3.13;;
33830;SDS011;20137;48.834;8.732;2023-07-31T12:33:32;8.90;;;3.30;;
33830;SDS011;20137;48.834;8.732;2023-07-31T12:36:03;7.15;;;2.40;;
33830;SDS011;20137;48.834;8.732;2023-07-31T12:38:31;4.78;;;2.78;;
33830;SDS011;20137;48.834;8.732;2023-07-31T12:40:58;4.72;;;2.53;;
33830;SDS011;20137;48.834;8.732;2023-07-31T12:43:23;6.95;;;3.03;;
33830;SDS011;20137;48.834;8.732;2023-07-31T12:45:49;5.47;;;2.63;;
33830;SDS011;20137;48.834;8.732;2023-07-31T12:48:15;4.97;;;2.78;;
33830;SDS011;20137;48.834;8.732;2023-07-31T12:50:41;6.25;;;2.80;;
33830;SDS011;20137;48.834;8.732;2023-07-31T12:53:06;6.10;;;2.92;;
33830;SDS011;20137;48.834;8.732;2023-07-31T12:55:32;7.82;;;2.65;;
33830;SDS011;20137;48.834;8.732;2023-07-31T12:57:59;7.00;;;2.70;;
33830;SDS011;20137;48.834;8.732;2023-07-31T13:00:26;5.68;;;2.38;;
33830;SDS011;20137;48.834;8.732;2023-07-31T13:02:52;6.43;;;2.38;;
33830;SDS011;20137;48.834;8.732;2023-07-31T13:05:18;5.50;;;3.13;;
33830;SDS011;20137;48.834;8.732;2023-07-31T13:07:45;7.68;;;2.80;;
33830;SDS011;20137;48.834;8.732;2023-07-31T13:10:11;4.55;;;2.60;;
33830;SDS011;20137;48.834;8.732;2023-07-31T13:12:37;6.22;;;2.60;;
33830;SDS011;20137;48.834;8.732;2023-07-31T13:15:03;6.70;;;2.58;;
33830;SDS011;20137;48.834;8.732;2023-07-31T13:17:30;5.15;;;2.60;;
33830;SDS011;20137;48.834;8.732;2023-07-31T13:19:56;6.93;;;2.58;;
33830;SDS011;20137;48.834;8.732;2023-07-31T13:22:22;6.90;;;3.15;;
33830;SDS011;20137;48.834;8.732;2023-07-31T13:24:47;6.43;;;2.55;;
33830;SDS011;20137;48.834;8.732;2023-07-31T13:27:13;9.10;;;2.80;;
33830;SDS011;20137;48.834;8.732;2023-07-31T13:29:43;10.10;;;2.75;;
33830;SDS011;20137;48.834;8.732;2023-07-31T13:32:09;5.00;;;2.72;;
33830;SDS011;20137;48.834;8.732;2023-07-31T13:34:35;6.15;;;2.88;;
33830;SDS011;20137;48.834;8.732;2023-07-31T13:37:01;7.43;;;2.97;;
33830;SDS011;20137;48.834;8.732;2023-07-31T13:39:27;5.38;;;2.58;;
33830;SDS011;20137;48.834;8.732;2023-07-31T13:41:52;4.80;;;2.40;;
33830;SDS011;20137;48.834;8.732;2023-07-31T13:44:18;5.50;;;2.95;;
33830;SDS011;20137;48.834;8.732;2023-07-31T13:46:44;6.68;;;2.75;;
33830;SDS011;20137;48.834;8.732;2023-07-31T13:49:09;5.60;;;2.75;;
33830;SDS011;20137;48.834;8.732;2023-07-31T13:51:35;5.15;;;2.58;;
33830;SDS011;20137;48.834;8.732;2023-07-31T13:54:01;7.10;;;2.65;;
33830;SDS011;20137;48.834;8.732;2023-07-31T13:56:26;4.03;;;2.75;;
33830;SDS011;20137;48.834;8.732;2023-07-31T13:58:52;5.35;;;2.80;;
33830;SDS011;20137;48.834;8.732;2023-07-31T14:01:18;6.55;;;2.70;;
33830;SDS011;20137;48.834;8.732;2023-07-31T14:03:43;4.05;;;2.30;;
33830;SDS011;20137;48.834;8.732;2023-07-31T14:06:09;6.32;;;2.63;;
33830;SDS011;20137;48.834;8.732;2023-07-31T14:08:35;7.22;;;2.83;;
33830;SDS011;20137;48.834;8.732;2023-07-31T14:11:01;7.30;;;2.50;;
33830;SDS011;20137;48.834;8.732;2023-07-31T14:13:27;3.80;;;2.10;;
33830;SDS011;20137;48.834;8.732;2023-07-31T14:15:52;8.40;;;3.05;;
33830;SDS011;20137;48.834;8.732;2023-07-31T14:18:18;6.90;;;2.80;;
33830;SDS011;20137;48.834;8.732;2023-07-31T14:20:44;6.40;;;2.90;;
33830;SDS011;20137;48.834;8.732;2023-07-31T14:23:09;4.45;;;2.47;;
33830;SDS011;20137;48.834;8.732;2023-07-31T14:25:35;7.30;;;2.35;;
33830;SDS011;20137;48.834;8.732;2023-07-31T14:28:01;6.20;;;2.30;;
33830;SDS011;20137;48.834;8.732;2023-07-31T14:30:27;5.70;;;2.53;;
33830;SDS011;20137;48.834;8.732;2023-07-31T14:32:52;6.70;;;2.70;;
33830;SDS011;20137;48.834;8.732;2023-07-31T14:35:18;7.63;;;2.85;;
33830;SDS011;20137;48.834;8.732;2023-07-31T14:37:44;6.18;;;2.85;;
33830;SDS011;20137;48.834;8.732;2023-07-31T14:40:11;4.75;;;2.35;;
33830;SDS011;20137;48.834;8.732;2023-07-31T14:42:38;6.43;;;2.70;;
33830;SDS011;20137;48.834;8.732;2023-07-31T14:45:04;4.82;;;2.55;;
33830;SDS011;20137;48.834;8.732;2023-07-31T14:47:31;4.05;;;2.67;;
33830;SDS011;20137;48.834;8.732;2023-07-31T14:49:57;7.38;;;2.50;;
33830;SDS011;20137;48.834;8.732;2023-07-31T14:52:23;5.97;;;2.63;;
33830;SDS011;20137;48.834;8.732;2023-07-31T14:54:49;7.03;;;2.70;;
33830;SDS011;20137;48.834;8.732;2023-07-31T14:57:15;8.95;;;2.60;;
33830;SDS011;20137;48.834;8.732;2023-07-31T14:59:41;7.13;;;3.10;;
33830;SDS011;20137;48.834;8.732;2023-07-31T15:02:08;5.20;;;2.80;;
33830;SDS011;20137;48.834;8.732;2023-07-31T15:04:35;6.63;;;2.63;;
33830;SDS011;20137;48.834;8.732;2023-07-31T15:07:01;8.23;;;2.95;;
33830;SDS011;20137;48.834;8.732;2023-07-31T15:09:27;6.90;;;2.85;;
33830;SDS011;20137;48.834;8.732;2023-07-31T15:11:52;6.15;;;2.72;;
33830;SDS011;20137;48.834;8.732;2023-07-31T15:14:18;6.53;;;2.72;;
33830;SDS011;20137;48.834;8.732;2023-07-31T15:16:45;4.18;;;2.45;;
33830;SDS011;20137;48.834;8.732;2023-07-31T15:19:11;5.65;;;2.67;;
33830;SDS011;20137;48.834;8.732;2023-07-31T15:21:37;6.40;;;2.53;;
33830;SDS011;20137;48.834;8.732;2023-07-31T15:24:03;5.65;;;2.67;;
33830;SDS011;20137;48.834;8.732;2023-07-31T15:26:28;6.50;;;3.05;;
33830;SDS011;20137;48.834;8.732;2023-07-31T15:29:01;5.75;;;2.85;;
33830;SDS011;20137;48.834;8.732;2023-07-31T15:31:30;5.40;;;2.63;;
33830;SDS011;20137;48.834;8.732;2023-07-31T15:33:56;6.10;;;2.92;;
33830;SDS011;20137;48.834;8.732;2023-07-31T15:36:22;6.00;;;2.72;;
33830;SDS011;20137;48.834;8.732;2023-07-31T15:38:48;6.57;;;2.60;;
33830;SDS011;20137;48.834;8.732;2023-07-31T15:41:16;6.55;;;2.70;;
33830;SDS011;20137;48.834;8.732;2023-07-31T15:43:42;7.22;;;2.75;;
33830;SDS011;20137;48.834;8.732;2023-07-31T15:46:07;5.63;;;2.67;;
33830;SDS011;20137;48.834;8.732;2023-07-31T15:48:33;4.95;;;2.63;;
33830;SDS011;20137;48.834;8.732;2023-07-31T15:50:59;7.40;;;2.90;;
33830;SDS011;20137;48.834;8.732;2023-07-31T15:53:26;5.53;;;2.88;;
33830;SDS011;20137;48.834;8.732;2023-07-31T15:55:52;6.68;;;3.00;;
33830;SDS011;20137;48.834;8.732;2023-07-31T15:58:17;5.65;;;2.75;;
33830;SDS011;20137;48.834;8.732;2023-07-31T16:00:43;7.47;;;2.85;;
33830;SDS011;20137;48.834;8.732;2023-07-31T16:03:10;8.55;;;2.90;;
33830;SDS011;20137;48.834;8.732;2023-07-31T16:05:35;6.70;;;2.75;;
33830;SDS011;20137;48.834;8.732;2023-07-31T16:08:01;5.88;;;2.28;;
33830;SDS011;20137;48.834;8.732;2023-07-31T16:10:27;6.03;;;2.80;;
33830;SDS011;20137;48.834;8.732;2023-07-31T16:12:52;9.93;;;3.30;;
33830;SDS011;20137;48.834;8.732;2023-07-31T16:15:18;6.43;;;3.00;;